createdAt,value
2023-04-14T00:00:12.603Z,96841.47
2023-04-14T00:02:41.802Z,96844.63
2023-04-14T00:05:11.360Z,96843.78
2023-04-14T00:07:40.564Z,96845.38
2023-04-14T00:10:10.665Z,96853.75
2023-04-14T00:12:41.332Z,96843.06
2023-04-14T00:15:11.857Z,96845.41
2023-04-14T00:17:41.146Z,96843.09
2023-04-14T00:20:11.139Z,96848.56
2023-04-14T00:22:40.271Z,96858.47
2023-04-14T00:25:10.311Z,96856.38
2023-04-14T00:27:40.967Z,96856.63
2023-04-14T00:30:12.730Z,96840.88
2023-04-14T00:32:42.033Z,96824.97
2023-04-14T00:35:11.279Z,96837.56
2023-04-14T00:37:40.434Z,96824.38
2023-04-14T00:40:11.717Z,96824.84
2023-04-14T00:42:46.258Z,96826.31
2023-04-14T00:45:16.769Z,96823.03
2023-04-14T00:47:49.376Z,96818.31
2023-04-14T00:50:20.706Z,96817.22
2023-04-14T00:52:52.770Z,96806.31
2023-04-14T00:55:22.275Z,96796.84
2023-04-14T00:57:52.974Z,96794.56
2023-04-14T01:00:22.527Z,96792.34
2023-04-14T01:02:51.970Z,96784.41
2023-04-14T01:05:21.358Z,96789.13
2023-04-14T01:07:51.237Z,96780.72
2023-04-14T01:10:20.676Z,96776.94
2023-04-14T01:13:17.341Z,96772.34
2023-04-14T01:15:53.161Z,96765.25
2023-04-14T01:18:31.267Z,96752.63
2023-04-14T01:21:09.348Z,96754.63
2023-04-14T01:23:43.325Z,96736.88
2023-04-14T01:26:23.237Z,96728.13
2023-04-14T01:29:35.276Z,96728.59
2023-04-14T01:32:10.585Z,96734.53
2023-04-14T01:34:46.032Z,96735.34
2023-04-14T01:37:19.171Z,96758.44
2023-04-14T01:39:55.900Z,96763.69
2023-04-14T01:42:31.326Z,96779.16
2023-04-14T01:45:07.683Z,96773.19
2023-04-14T01:47:39.742Z,96754.31
2023-04-14T01:50:12.455Z,96737.28
2023-04-14T01:52:43.969Z,96720.25
2023-04-14T01:55:14.066Z,96715.34
2023-04-14T01:57:47.699Z,96700.41
2023-04-14T02:00:19.368Z,96678.84
2023-04-14T02:02:53.391Z,96690.00
2023-04-14T02:05:23.839Z,96682.00
2023-04-14T02:07:55.037Z,96688.47
2023-04-14T02:10:25.699Z,96694.47
2023-04-14T02:12:58.888Z,96687.63
2023-04-14T02:15:29.253Z,96677.38
2023-04-14T02:18:01.109Z,96678.34
2023-04-14T02:20:31.049Z,96690.28
2023-04-14T02:23:00.509Z,96680.41
2023-04-14T02:25:36.135Z,96687.78
2023-04-14T02:28:11.685Z,96686.84
2023-04-14T02:30:45.270Z,96677.28
2023-04-14T02:33:22.647Z,96657.38
2023-04-14T02:36:01.717Z,96654.72
2023-04-14T02:38:36.980Z,96661.00
2023-04-14T02:41:12.428Z,96668.00
2023-04-14T02:43:56.987Z,96660.97
2023-04-14T02:46:30.584Z,96659.06
2023-04-14T02:49:06.140Z,96661.91
2023-04-14T02:51:39.032Z,96658.59
2023-04-14T02:54:08.496Z,96650.09
2023-04-14T02:56:44.390Z,96643.31
2023-04-14T02:59:14.338Z,96648.25
2023-04-14T03:01:59.677Z,96632.09
2023-04-14T03:04:33.674Z,96634.94
2023-04-14T03:07:06.972Z,96638.53
2023-04-14T03:09:37.401Z,96637.00
2023-04-14T03:12:08.413Z,96636.09
2023-04-14T03:14:38.762Z,96638.16
2023-04-14T03:17:09.307Z,96644.66
2023-04-14T03:19:41.794Z,96662.72
2023-04-14T03:22:13.705Z,96647.56
2023-04-14T03:24:44.002Z,96649.38
2023-04-14T03:27:17.911Z,96648.91
2023-04-14T03:29:55.816Z,96654.47
2023-04-14T03:32:30.654Z,96656.22
2023-04-14T03:35:03.178Z,96664.25
2023-04-14T03:37:37.001Z,96655.44
2023-04-14T03:40:09.426Z,96653.38
2023-04-14T03:42:44.660Z,96650.25
2023-04-14T03:45:17.170Z,96658.97
2023-04-14T03:47:47.673Z,96655.81
2023-04-14T03:50:23.213Z,96669.16
2023-04-14T03:52:55.189Z,96666.66
2023-04-14T03:55:27.525Z,96654.19
2023-04-14T03:57:58.531Z,96661.44
2023-04-14T04:00:30.561Z,96661.34
2023-04-14T04:03:01.748Z,96654.22
2023-04-14T04:05:33.484Z,96655.59
2023-04-14T04:08:05.141Z,96649.94
2023-04-14T04:10:36.029Z,96651.22
2023-04-14T04:13:10.325Z,96654.34
2023-04-14T04:15:42.191Z,96648.78
2023-04-14T04:18:16.641Z,96653.38
2023-04-14T04:20:48.710Z,96639.56
2023-04-14T04:23:19.547Z,96638.34
2023-04-14T04:25:50.253Z,96647.03
2023-04-14T04:28:32.973Z,96653.50
2023-04-14T04:31:04.994Z,96660.53
2023-04-14T04:33:35.508Z,96663.38
2023-04-14T04:36:08.142Z,96663.38
2023-04-14T04:38:44.172Z,96657.28
2023-04-14T04:41:23.128Z,96645.81
2023-04-14T04:43:53.521Z,96661.44
2023-04-14T04:46:45.530Z,96663.81
2023-04-14T04:49:16.974Z,96663.06
2023-04-14T04:51:49.139Z,96670.38
2023-04-14T04:54:20.842Z,96658.78
2023-04-14T04:56:50.357Z,96661.28
2023-04-14T04:59:24.918Z,96670.13
2023-04-14T05:01:54.396Z,96669.38
2023-04-14T05:04:23.904Z,96657.13
2023-04-14T05:06:54.814Z,96665.84
2023-04-14T05:09:30.452Z,96672.53
2023-04-14T05:11:59.905Z,96665.94
2023-04-14T05:14:29.017Z,96665.50
2023-04-14T05:16:58.108Z,96669.84
2023-04-14T05:19:27.171Z,96682.09
2023-04-14T05:21:57.595Z,96681.00
2023-04-14T05:24:27.424Z,96686.97
2023-04-14T05:27:13.092Z,96688.78
2023-04-14T05:29:43.228Z,96686.53
2023-04-14T05:32:14.506Z,96679.50
2023-04-14T05:34:43.620Z,96669.44
2023-04-14T05:37:14.222Z,96669.00
2023-04-14T05:39:43.320Z,96663.31
2023-04-14T05:42:12.323Z,96664.03
2023-04-14T05:44:41.354Z,96665.75
2023-04-14T05:47:10.462Z,96660.53
2023-04-14T05:49:39.540Z,96664.03
2023-04-14T05:52:08.677Z,96658.53
2023-04-14T05:54:40.085Z,96650.59
2023-04-14T05:57:10.300Z,96646.09
2023-04-14T05:59:39.377Z,96654.47
2023-04-14T06:02:08.605Z,96647.38
2023-04-14T06:04:37.899Z,96647.53
2023-04-14T06:07:07.221Z,96644.75
2023-04-14T06:09:36.242Z,96634.25
2023-04-14T06:12:06.855Z,96640.19
2023-04-14T06:14:35.945Z,96640.59
2023-04-14T06:17:05.133Z,96638.91
2023-04-14T06:19:34.112Z,96637.16
2023-04-14T06:22:03.170Z,96645.91
2023-04-14T06:24:33.319Z,96645.84
2023-04-14T06:27:03.860Z,96678.91
2023-04-14T06:29:34.326Z,96674.53
2023-04-14T06:32:03.445Z,96680.09
2023-04-14T06:34:32.581Z,96694.44
2023-04-14T06:37:01.634Z,96689.09
2023-04-14T06:39:31.383Z,96679.63
2023-04-14T06:42:04.806Z,96668.81
2023-04-14T06:44:35.499Z,96669.16
2023-04-14T06:47:04.584Z,96672.38
2023-04-14T06:49:33.719Z,96678.97
2023-04-14T06:52:02.725Z,96668.22
2023-04-14T06:54:34.905Z,96666.09
2023-04-14T06:57:05.237Z,96661.22
2023-04-14T06:59:35.697Z,96644.00
2023-04-14T07:02:04.847Z,96654.06
2023-04-14T07:04:34.135Z,96649.06
2023-04-14T07:07:03.220Z,96642.75
2023-04-14T07:09:32.393Z,96645.69
2023-04-14T07:12:01.556Z,96644.78
2023-04-14T07:14:33.500Z,96641.56
2023-04-14T07:17:03.952Z,96635.53
2023-04-14T07:19:33.118Z,96635.41
2023-04-14T07:22:03.321Z,96649.88
2023-04-14T07:24:32.442Z,96655.81
2023-04-14T07:27:01.422Z,96657.38
2023-04-14T07:29:32.573Z,96647.81
2023-04-14T07:32:03.162Z,96634.13
2023-04-14T07:34:34.376Z,96623.09
2023-04-14T07:37:03.584Z,96628.56
2023-04-14T07:39:32.728Z,96638.06
2023-04-14T07:42:01.770Z,96640.88
2023-04-14T07:44:30.911Z,96631.84
2023-04-14T07:46:59.963Z,96618.78
2023-04-14T07:49:31.638Z,96639.28
2023-04-14T07:52:04.407Z,96658.34
2023-04-14T07:54:33.459Z,96645.22
2023-04-14T07:57:02.620Z,96642.22
2023-04-14T07:59:32.575Z,96656.53
2023-04-14T08:02:01.944Z,96650.88
2023-04-14T08:04:32.701Z,96663.09
2023-04-14T08:07:01.842Z,96678.41
2023-04-14T08:09:30.978Z,96684.66
2023-04-14T08:12:00.024Z,96685.31
2023-04-14T08:14:29.137Z,96686.03
2023-04-14T08:16:58.258Z,96691.19
2023-04-14T08:19:27.271Z,96704.34
2023-04-14T08:21:58.113Z,96713.09
2023-04-14T08:24:27.430Z,96709.44
2023-04-14T08:26:56.863Z,96695.47
2023-04-14T08:29:26.476Z,96700.72
2023-04-14T08:31:55.514Z,96708.94
2023-04-14T08:34:28.630Z,96704.78
2023-04-14T08:37:00.338Z,96704.00
2023-04-14T08:39:29.626Z,96689.97
2023-04-14T08:41:58.694Z,96692.25
2023-04-14T08:44:30.849Z,96687.47
2023-04-14T08:47:00.617Z,96687.53
2023-04-14T08:49:39.715Z,96694.38
2023-04-14T08:52:12.587Z,96689.00
2023-04-14T08:54:42.628Z,96696.16
2023-04-14T08:57:16.900Z,96698.66
2023-04-14T08:59:46.435Z,96704.63
2023-04-14T09:02:16.188Z,96708.19
2023-04-14T09:04:46.486Z,96703.31
2023-04-14T09:07:17.283Z,96702.47
2023-04-14T09:09:46.955Z,96716.44
2023-04-14T09:12:18.691Z,96717.84
2023-04-14T09:14:47.789Z,96709.44
2023-04-14T09:17:17.425Z,96717.16
2023-04-14T09:20:36.683Z,96708.22
2023-04-14T09:22:37.627Z,96729.44
2023-04-14T09:25:08.979Z,96726.38
2023-04-14T09:27:38.331Z,96736.09
2023-04-14T09:30:10.179Z,96737.81
2023-04-14T09:32:40.538Z,96741.25
2023-04-14T09:35:13.804Z,96738.25
2023-04-14T09:37:48.997Z,96748.56
2023-04-14T09:40:31.695Z,96750.16
2023-04-14T09:43:02.232Z,96757.31
2023-04-14T09:45:45.829Z,96762.19
2023-04-14T09:48:15.015Z,96765.16
2023-04-14T09:51:03.378Z,96764.66
2023-04-14T09:53:36.002Z,96773.34
2023-04-14T09:56:07.746Z,96767.78
2023-04-14T09:58:39.039Z,96770.66
2023-04-14T10:01:16.436Z,96781.47
2023-04-14T10:03:47.332Z,96786.13
2023-04-14T10:06:19.519Z,96788.06
2023-04-14T10:08:52.218Z,96786.75
2023-04-14T10:11:24.910Z,96784.97
2023-04-14T10:13:56.848Z,96784.88
2023-04-14T10:16:26.614Z,96789.66
2023-04-14T10:18:57.592Z,96795.25
2023-04-14T10:21:27.876Z,96791.00
2023-04-14T10:23:58.811Z,96792.59
2023-04-14T10:26:30.003Z,96798.09
2023-04-14T10:28:59.641Z,96797.28
2023-04-14T10:31:34.467Z,96791.56
2023-04-14T10:34:10.906Z,96789.84
2023-04-14T10:36:41.465Z,96794.97
2023-04-14T10:39:13.448Z,96798.66
2023-04-14T10:41:49.776Z,96792.56
2023-04-14T10:44:26.989Z,96791.78
2023-04-14T10:46:57.042Z,96794.50
2023-04-14T10:49:33.420Z,96790.16
2023-04-14T10:52:04.676Z,96789.81
2023-04-14T10:54:56.473Z,96791.72
2023-04-14T10:57:27.424Z,96792.34
2023-04-14T10:59:59.151Z,96792.22
2023-04-14T11:02:30.954Z,96788.91
2023-04-14T11:05:04.107Z,96790.31
2023-04-14T11:07:40.565Z,96788.84
2023-04-14T11:10:33.230Z,96792.78
2023-04-14T11:13:05.628Z,96795.91
2023-04-14T11:16:02.889Z,96797.31
2023-04-14T11:18:44.766Z,96791.19
2023-04-14T11:21:17.652Z,96803.00
2023-04-14T11:23:47.794Z,96796.88
2023-04-14T11:26:18.582Z,96795.31
2023-04-14T11:28:47.733Z,96800.63
2023-04-14T11:31:19.301Z,96797.63
2023-04-14T11:33:49.767Z,96802.88
2023-04-14T11:36:21.856Z,96802.88
2023-04-14T11:38:51.327Z,96806.09
2023-04-14T11:41:22.346Z,96814.91
2023-04-14T11:43:53.050Z,96813.75
2023-04-14T11:46:22.742Z,96813.59
2023-04-14T11:48:59.774Z,96819.69
2023-04-14T11:51:33.756Z,96810.84
2023-04-14T11:54:03.392Z,96815.81
2023-04-14T11:56:36.719Z,96808.06
2023-04-14T11:59:07.281Z,96800.00
2023-04-14T12:01:36.454Z,96805.41
2023-04-14T12:04:06.635Z,96807.97
2023-04-14T12:06:39.194Z,96806.91
2023-04-14T12:09:10.626Z,96808.84
2023-04-14T12:11:41.215Z,96810.84
2023-04-14T12:14:13.447Z,96810.59
2023-04-14T12:16:42.870Z,96807.47
2023-04-14T12:19:12.018Z,96800.56
2023-04-14T12:21:41.162Z,96803.09
2023-04-14T12:24:12.371Z,96805.34
2023-04-14T12:26:44.672Z,96818.41
2023-04-14T12:29:14.769Z,96817.06
2023-04-14T12:31:46.780Z,96809.38
2023-04-14T12:34:18.329Z,96803.78
2023-04-14T12:36:52.537Z,96803.69
2023-04-14T12:39:23.189Z,96809.03
2023-04-14T12:41:53.982Z,96813.56
2023-04-14T12:44:24.465Z,96808.13
2023-04-14T12:46:55.290Z,96815.41
2023-04-14T12:49:32.936Z,96809.84
2023-04-14T12:52:02.631Z,96809.41
2023-04-14T12:54:48.200Z,96810.75
2023-04-14T12:57:20.214Z,96811.56
2023-04-14T12:59:49.280Z,96812.06
2023-04-14T13:02:20.155Z,96807.47
2023-04-14T13:04:49.332Z,96810.63
2023-04-14T13:07:18.762Z,96805.84
2023-04-14T13:09:47.908Z,96808.09
2023-04-14T13:12:18.642Z,96808.09
2023-04-14T13:14:47.675Z,96806.78
2023-04-14T13:17:16.736Z,96807.09
2023-04-14T13:19:46.716Z,96808.56
2023-04-14T13:22:16.114Z,96808.16
2023-04-14T13:24:45.334Z,96807.28
2023-04-14T13:27:14.458Z,96816.47
2023-04-14T13:29:44.944Z,96814.13
2023-04-14T13:32:14.149Z,96816.97
2023-04-14T13:34:44.177Z,96818.34
2023-04-14T13:37:13.550Z,96806.91
2023-04-14T13:39:42.713Z,96806.00
2023-04-14T13:42:11.837Z,96810.25
2023-04-14T13:44:40.896Z,96802.84
2023-04-14T13:47:11.764Z,96803.34
2023-04-14T13:49:40.782Z,96799.28
2023-04-14T13:52:09.952Z,96807.56
2023-04-14T13:54:39.036Z,96796.13
2023-04-14T13:57:08.232Z,96807.06
2023-04-14T13:59:37.316Z,96798.31
2023-04-14T14:02:06.668Z,96793.84
2023-04-14T14:04:38.230Z,96790.94
2023-04-14T14:07:07.421Z,96786.00
2023-04-14T14:09:36.488Z,96781.06
2023-04-14T14:12:05.652Z,96781.94
2023-04-14T14:14:34.662Z,96787.66
2023-04-14T14:17:03.758Z,96781.59
2023-04-14T14:19:33.107Z,96787.75
2023-04-14T14:22:03.596Z,96792.72
2023-04-14T14:24:32.583Z,96797.75
2023-04-14T14:27:02.074Z,96790.31
2023-04-14T14:29:31.385Z,96801.78
2023-04-14T14:32:00.503Z,96792.75
2023-04-14T14:34:29.565Z,96793.34
2023-04-14T14:36:58.899Z,96800.81
2023-04-14T14:39:32.750Z,96792.84
2023-04-14T14:42:01.840Z,96794.50
2023-04-14T14:44:31.682Z,96795.31
2023-04-14T14:47:01.280Z,96801.16
2023-04-14T14:49:30.478Z,96804.84
2023-04-14T14:52:02.258Z,96799.16
2023-04-14T14:54:32.773Z,96802.13
2023-04-14T14:57:01.810Z,96803.44
2023-04-14T14:59:30.868Z,96802.72
2023-04-14T15:02:00.097Z,96804.06
2023-04-14T15:04:29.358Z,96810.03
2023-04-14T15:06:58.578Z,96802.56
2023-04-14T15:09:27.625Z,96810.53
2023-04-14T15:11:58.216Z,96807.47
2023-04-14T15:14:27.314Z,96815.16
2023-04-14T15:16:56.822Z,96816.38
2023-04-14T15:19:26.063Z,96808.84
2023-04-14T15:21:55.224Z,96814.22
2023-04-14T15:24:24.353Z,96813.06
2023-04-14T15:26:53.373Z,96811.50
2023-04-14T15:29:25.065Z,96806.75
2023-04-14T15:31:54.610Z,96813.06
2023-04-14T15:34:23.990Z,96818.22
2023-04-14T15:36:53.094Z,96819.44
2023-04-14T15:39:22.283Z,96816.38
2023-04-14T15:41:51.470Z,96810.94
2023-04-14T15:44:20.477Z,96821.97
2023-04-14T15:46:51.500Z,96821.25
2023-04-14T15:49:20.845Z,96809.19
2023-04-14T15:51:50.831Z,96813.06
2023-04-14T15:54:20.220Z,96819.81
2023-04-14T15:56:51.936Z,96820.16
2023-04-14T15:59:22.350Z,96822.06
2023-04-14T16:01:53.625Z,96822.84
2023-04-14T16:04:23.235Z,96828.34
2023-04-14T16:06:52.413Z,96833.66
2023-04-14T16:09:21.436Z,96829.50
2023-04-14T16:11:50.492Z,96831.06
2023-04-14T16:14:19.533Z,96826.34
2023-04-14T16:16:48.548Z,96833.59
2023-04-14T16:19:19.029Z,96834.19
2023-04-14T16:21:48.496Z,96837.19
2023-04-14T16:24:17.503Z,96836.97
2023-04-14T16:26:47.610Z,96838.31
2023-04-14T16:29:16.749Z,96842.25
2023-04-14T16:31:46.302Z,96840.13
2023-04-14T16:34:15.759Z,96849.63
2023-04-14T16:36:46.533Z,96840.03
2023-04-14T16:39:15.759Z,96839.38
2023-04-14T16:41:45.783Z,96843.41
2023-04-14T16:44:15.107Z,96842.00
2023-04-14T16:46:44.373Z,96849.31
2023-04-14T16:49:14.701Z,96854.13
2023-04-14T16:51:46.199Z,96865.94
2023-04-14T16:54:15.519Z,96861.00
2023-04-14T16:56:45.500Z,96859.91
2023-04-14T16:59:14.545Z,96862.81
2023-04-14T17:01:44.892Z,96865.50
2023-04-14T17:04:14.361Z,96861.22
2023-04-14T17:06:45.002Z,96861.66
2023-04-14T17:09:14.043Z,96866.47
2023-04-14T17:11:43.693Z,96865.69
2023-04-14T17:14:12.786Z,96867.44
2023-04-14T17:16:42.358Z,96866.66
2023-04-14T17:19:11.465Z,96872.38
2023-04-14T17:21:44.628Z,96871.16
2023-04-14T17:24:15.115Z,96871.63
2023-04-14T17:26:44.425Z,96862.22
2023-04-14T17:29:13.475Z,96871.69
2023-04-14T17:31:43.188Z,96855.03
2023-04-14T17:34:13.245Z,96872.19
2023-04-14T17:36:42.466Z,96867.06
2023-04-14T17:39:11.983Z,96858.34
2023-04-14T17:41:42.571Z,96858.34
2023-04-14T17:44:12.121Z,96855.97
2023-04-14T17:46:41.209Z,96859.19
2023-04-14T17:49:10.285Z,96858.19
2023-04-14T17:51:39.433Z,96852.75
2023-04-14T17:54:08.775Z,96856.03
2023-04-14T17:56:37.909Z,96850.66
2023-04-14T17:59:08.405Z,96852.59
2023-04-14T18:01:37.623Z,96847.19
2023-04-14T18:04:06.759Z,96843.50
2023-04-14T18:06:36.582Z,96848.03
2023-04-14T18:09:05.709Z,96844.41
2023-04-14T18:11:35.270Z,96842.81
2023-04-14T18:14:04.777Z,96847.69
2023-04-14T18:16:35.479Z,96861.31
2023-04-14T18:19:04.850Z,96850.19
2023-04-14T18:22:15.147Z,96841.50
2023-04-14T18:25:25.742Z,96842.84
2023-04-14T18:28:39.158Z,96845.53
2023-04-14T18:31:19.097Z,96846.44
2023-04-14T18:33:49.614Z,96854.38
2023-04-14T18:36:18.750Z,96853.84
2023-04-14T18:42:43.941Z,96844.06
2023-04-14T18:45:20.900Z,96849.59
2023-04-14T18:51:37.970Z,96844.41
2023-04-14T18:54:16.132Z,96859.00
2023-04-14T18:57:11.420Z,96841.75
2023-04-14T19:00:08.803Z,96853.63
2023-04-14T19:06:39.850Z,96866.38
2023-04-14T19:09:14.283Z,96851.31
2023-04-14T19:12:28.105Z,96849.84
2023-04-14T19:15:15.256Z,96861.53
2023-04-14T19:17:57.708Z,96860.00
2023-04-14T19:20:58.906Z,96859.34
2023-04-14T19:23:41.058Z,96852.91
2023-04-14T19:26:11.609Z,96845.66
2023-04-14T19:28:47.488Z,96850.38
2023-04-14T19:31:21.659Z,96853.59
2023-04-14T19:33:50.974Z,96853.63
2023-04-14T19:36:20.109Z,96851.72
2023-04-14T19:38:51.525Z,96851.09
2023-04-14T19:41:26.702Z,96843.38
2023-04-14T19:44:27.589Z,96838.47
2023-04-14T19:48:16.519Z,96846.91
2023-04-14T19:50:55.409Z,96829.00
2023-04-14T19:53:38.907Z,96831.47
2023-04-14T19:56:25.515Z,96837.00
2023-04-14T19:59:11.758Z,96831.66
2023-04-14T20:01:42.398Z,96832.53
2023-04-14T20:04:12.603Z,96839.00
2023-04-14T20:06:45.793Z,96837.78
2023-04-14T20:09:15.239Z,96837.44
2023-04-14T20:11:45.724Z,96832.94
2023-04-14T20:14:15.079Z,96844.78
2023-04-14T20:16:44.314Z,96840.91
2023-04-14T20:19:13.766Z,96841.84
2023-04-14T20:21:43.737Z,96838.69
2023-04-14T20:24:13.488Z,96839.53
2023-04-14T20:26:43.715Z,96837.97
2023-04-14T20:29:16.062Z,96840.38
2023-04-14T20:31:45.310Z,96834.81
2023-04-14T20:34:15.335Z,96829.97
2023-04-14T20:36:45.072Z,96833.97
2023-04-14T20:39:14.351Z,96837.53
2023-04-14T20:41:43.477Z,96830.06
2023-04-14T20:44:14.109Z,96832.38
2023-04-14T20:46:43.551Z,96831.53
2023-04-14T20:49:12.632Z,96841.13
2023-04-14T20:51:41.896Z,96836.28
2023-04-14T20:54:11.040Z,96833.47
2023-04-14T20:56:40.266Z,96842.69
2023-04-14T20:59:10.330Z,96846.34
2023-04-14T21:01:42.717Z,96849.84
2023-04-14T21:04:12.122Z,96841.13
2023-04-14T21:06:41.319Z,96848.28
2023-04-14T21:09:10.413Z,96852.22
2023-04-14T21:11:39.726Z,96848.22
2023-04-14T21:15:29.807Z,96848.13
2023-04-14T21:16:59.542Z,96844.34
2023-04-14T21:19:28.784Z,96849.97
2023-04-14T21:21:57.882Z,96852.38
2023-04-14T21:24:27.804Z,96851.25
2023-04-14T21:26:57.543Z,96856.03
2023-04-14T21:29:26.629Z,96853.88
2023-04-14T21:31:56.120Z,96866.56
2023-04-14T21:34:27.444Z,96862.00
2023-04-14T21:36:58.777Z,96861.75
2023-04-14T21:39:29.967Z,96861.03
2023-04-14T21:41:59.139Z,96859.44
2023-04-14T21:44:28.345Z,96860.66
2023-04-14T21:46:58.690Z,96863.06
2023-04-14T21:49:30.840Z,96863.44
2023-04-14T21:52:03.116Z,96865.91
2023-04-14T21:54:35.205Z,96868.00
2023-04-14T21:57:04.497Z,96867.28
2023-04-14T21:59:33.494Z,96857.81
2023-04-14T22:02:02.596Z,96867.72
2023-04-14T22:04:36.687Z,96861.75
2023-04-14T22:07:07.023Z,96867.34
2023-04-14T22:09:36.217Z,96868.06
2023-04-14T22:12:05.308Z,96858.97
2023-04-14T22:14:36.109Z,96860.19
2023-04-14T22:17:05.631Z,96861.69
2023-04-14T22:19:36.068Z,96860.53
2023-04-14T22:22:05.292Z,96854.59
2023-04-14T22:24:34.614Z,96858.44
2023-04-14T22:27:03.672Z,96862.59
2023-04-14T22:29:32.709Z,96867.97
2023-04-14T22:32:01.881Z,96861.75
2023-04-14T22:34:30.902Z,96861.75
2023-04-14T22:37:01.581Z,96860.19
2023-04-14T22:39:30.616Z,96865.72
2023-04-14T22:41:59.648Z,96860.53
2023-04-14T22:44:28.698Z,96858.22
2023-04-14T22:46:57.737Z,96861.97
2023-04-14T22:49:27.113Z,96862.50
2023-04-14T22:51:57.614Z,96859.75
2023-04-14T22:54:28.534Z,96862.59
2023-04-14T22:56:57.709Z,96862.59
2023-04-14T22:59:27.124Z,96865.88
2023-04-14T23:01:56.697Z,96869.84
2023-04-14T23:04:26.786Z,96872.88
2023-04-14T23:06:56.051Z,96865.03
2023-04-14T23:09:25.171Z,96872.50
2023-04-14T23:11:55.674Z,96872.13
2023-04-14T23:14:24.931Z,96871.34
2023-04-14T23:16:54.069Z,96870.59
2023-04-14T23:19:23.210Z,96877.41
2023-04-14T23:21:52.489Z,96875.50
2023-04-14T23:24:22.476Z,96872.94
2023-04-14T23:26:51.860Z,96873.56
2023-04-14T23:29:22.261Z,96871.81
2023-04-14T23:31:51.912Z,96872.94
2023-04-14T23:34:21.094Z,96864.66
2023-04-14T23:36:50.478Z,96876.09
2023-04-14T23:39:19.494Z,96870.88
2023-04-14T23:41:48.774Z,96864.91
2023-04-14T23:44:17.804Z,96875.34
2023-04-14T23:46:48.383Z,96869.03
2023-04-14T23:49:24.000Z,96864.28
2023-04-14T23:51:53.976Z,96867.44
2023-04-14T23:54:23.114Z,96859.56
2023-04-14T23:56:52.295Z,96853.19
2023-04-14T23:59:24.332Z,96857.19
